sensor_id;sensor_type;location;lat;lon;timestamp;P1;durP1;ratioP1;P2;durP2;ratioP2
40256;SDS011;25977;45.462;9.210;2022-12-31T00:01:28;44.88;;;22.63;;
40256;SDS011;25977;45.462;9.210;2022-12-31T00:03:55;42.78;;;22.15;;
40256;SDS011;25977;45.462;9.210;2022-12-31T00:08:48;47.00;;;23.65;;
40256;SDS011;25977;45.462;9.210;2022-12-31T00:11:14;42.83;;;21.83;;
40256;SDS011;25977;45.462;9.210;2022-12-31T00:13:40;38.47;;;21.25;;
40256;SDS011;25977;45.462;9.210;2022-12-31T00:16:11;39.55;;;22.35;;
40256;SDS011;25977;45.462;9.210;2022-12-31T00:18:47;38.65;;;22.63;;
40256;SDS011;25977;45.462;9.210;2022-12-31T00:21:14;41.63;;;23.27;;
40256;SDS011;25977;45.462;9.210;2022-12-31T00:23:41;40.55;;;22.75;;
40256;SDS011;25977;45.462;9.210;2022-12-31T00:26:08;38.50;;;22.48;;
40256;SDS011;25977;45.462;9.210;2022-12-31T00:28:36;37.03;;;21.70;;
40256;SDS011;25977;45.462;9.210;2022-12-31T00:31:04;45.53;;;23.52;;
40256;SDS011;25977;45.462;9.210;2022-12-31T00:33:49;41.47;;;23.15;;
40256;SDS011;25977;45.462;9.210;2022-12-31T00:36:19;39.97;;;20.98;;
40256;SDS011;25977;45.462;9.210;2022-12-31T00:38:47;35.15;;;20.65;;
40256;SDS011;25977;45.462;9.210;2022-12-31T00:41:14;40.83;;;22.50;;
40256;SDS011;25977;45.462;9.210;2022-12-31T00:43:40;39.55;;;23.08;;
40256;SDS011;25977;45.462;9.210;2022-12-31T00:46:07;42.60;;;23.05;;
40256;SDS011;25977;45.462;9.210;2022-12-31T00:48:33;44.05;;;21.15;;
40256;SDS011;25977;45.462;9.210;2022-12-31T00:51:00;39.55;;;21.40;;
40256;SDS011;25977;45.462;9.210;2022-12-31T00:53:27;36.75;;;21.60;;
40256;SDS011;25977;45.462;9.210;2022-12-31T00:55:58;43.65;;;22.95;;
40256;SDS011;25977;45.462;9.210;2022-12-31T00:58:25;39.88;;;21.90;;
40256;SDS011;25977;45.462;9.210;2022-12-31T01:00:51;38.88;;;21.35;;
40256;SDS011;25977;45.462;9.210;2022-12-31T01:03:17;37.58;;;22.02;;
40256;SDS011;25977;45.462;9.210;2022-12-31T01:05:43;39.03;;;22.52;;
40256;SDS011;25977;45.462;9.210;2022-12-31T01:08:08;42.60;;;21.70;;
40256;SDS011;25977;45.462;9.210;2022-12-31T01:10:34;40.35;;;20.60;;
40256;SDS011;25977;45.462;9.210;2022-12-31T01:13:18;40.60;;;22.38;;
40256;SDS011;25977;45.462;9.210;2022-12-31T01:15:44;40.47;;;21.00;;
40256;SDS011;25977;45.462;9.210;2022-12-31T01:18:10;42.55;;;21.10;;
40256;SDS011;25977;45.462;9.210;2022-12-31T01:20:37;40.13;;;23.27;;
40256;SDS011;25977;45.462;9.210;2022-12-31T01:23:05;40.22;;;21.33;;
40256;SDS011;25977;45.462;9.210;2022-12-31T01:25:38;46.80;;;23.15;;
40256;SDS011;25977;45.462;9.210;2022-12-31T01:28:06;43.78;;;21.55;;
40256;SDS011;25977;45.462;9.210;2022-12-31T01:30:33;39.92;;;22.25;;
40256;SDS011;25977;45.462;9.210;2022-12-31T01:33:02;41.47;;;22.23;;
40256;SDS011;25977;45.462;9.210;2022-12-31T01:35:27;38.08;;;20.33;;
40256;SDS011;25977;45.462;9.210;2022-12-31T01:37:53;41.10;;;22.15;;
40256;SDS011;25977;45.462;9.210;2022-12-31T01:40:18;43.78;;;22.27;;
40256;SDS011;25977;45.462;9.210;2022-12-31T01:42:44;45.22;;;23.13;;
40256;SDS011;25977;45.462;9.210;2022-12-31T01:45:17;38.03;;;20.77;;
40256;SDS011;25977;45.462;9.210;2022-12-31T01:47:47;44.17;;;22.35;;
40256;SDS011;25977;45.462;9.210;2022-12-31T01:50:21;43.60;;;21.67;;
40256;SDS011;25977;45.462;9.210;2022-12-31T01:52:56;36.95;;;21.45;;
40256;SDS011;25977;45.462;9.210;2022-12-31T01:55:29;40.47;;;20.95;;
40256;SDS011;25977;45.462;9.210;2022-12-31T01:58:04;34.97;;;20.05;;
40256;SDS011;25977;45.462;9.210;2022-12-31T02:00:34;43.88;;;21.50;;
40256;SDS011;25977;45.462;9.210;2022-12-31T02:03:00;37.22;;;20.52;;
40256;SDS011;25977;45.462;9.210;2022-12-31T02:05:34;36.88;;;20.05;;
40256;SDS011;25977;45.462;9.210;2022-12-31T02:08:22;39.08;;;21.27;;
40256;SDS011;25977;45.462;9.210;2022-12-31T02:10:48;38.88;;;22.23;;
40256;SDS011;25977;45.462;9.210;2022-12-31T02:13:13;38.47;;;19.17;;
40256;SDS011;25977;45.462;9.210;2022-12-31T02:18:51;40.65;;;20.75;;
40256;SDS011;25977;45.462;9.210;2022-12-31T02:22:07;43.33;;;21.00;;
40256;SDS011;25977;45.462;9.210;2022-12-31T02:25:11;39.80;;;22.83;;
40256;SDS011;25977;45.462;9.210;2022-12-31T02:31:07;38.28;;;19.60;;
40256;SDS011;25977;45.462;9.210;2022-12-31T02:34:01;42.97;;;21.48;;
40256;SDS011;25977;45.462;9.210;2022-12-31T02:36:35;40.92;;;20.92;;
40256;SDS011;25977;45.462;9.210;2022-12-31T02:41:46;33.35;;;19.65;;
40256;SDS011;25977;45.462;9.210;2022-12-31T02:44:26;43.33;;;23.13;;
40256;SDS011;25977;45.462;9.210;2022-12-31T02:49:58;36.38;;;20.33;;
40256;SDS011;25977;45.462;9.210;2022-12-31T02:55:10;38.05;;;21.38;;
40256;SDS011;25977;45.462;9.210;2022-12-31T03:01:23;34.78;;;19.70;;
40256;SDS011;25977;45.462;9.210;2022-12-31T03:04:13;38.05;;;19.45;;
40256;SDS011;25977;45.462;9.210;2022-12-31T03:06:56;38.63;;;19.88;;
40256;SDS011;25977;45.462;9.210;2022-12-31T03:09:29;41.05;;;20.33;;
40256;SDS011;25977;45.462;9.210;2022-12-31T03:11:55;40.58;;;20.27;;
40256;SDS011;25977;45.462;9.210;2022-12-31T03:14:40;34.42;;;20.08;;
40256;SDS011;25977;45.462;9.210;2022-12-31T03:17:06;35.33;;;19.30;;
40256;SDS011;25977;45.462;9.210;2022-12-31T03:19:31;38.80;;;21.17;;
40256;SDS011;25977;45.462;9.210;2022-12-31T03:22:16;36.92;;;19.30;;
40256;SDS011;25977;45.462;9.210;2022-12-31T03:24:55;39.88;;;20.80;;
40256;SDS011;25977;45.462;9.210;2022-12-31T03:27:51;35.83;;;19.60;;
40256;SDS011;25977;45.462;9.210;2022-12-31T03:30:17;35.53;;;19.40;;
40256;SDS011;25977;45.462;9.210;2022-12-31T03:32:44;35.78;;;20.25;;
40256;SDS011;25977;45.462;9.210;2022-12-31T03:35:12;32.88;;;19.13;;
40256;SDS011;25977;45.462;9.210;2022-12-31T03:37:39;35.42;;;21.17;;
40256;SDS011;25977;45.462;9.210;2022-12-31T03:40:08;42.08;;;20.58;;
40256;SDS011;25977;45.462;9.210;2022-12-31T03:42:36;39.70;;;22.30;;
40256;SDS011;25977;45.462;9.210;2022-12-31T03:45:01;36.03;;;19.60;;
40256;SDS011;25977;45.462;9.210;2022-12-31T03:47:27;38.85;;;20.23;;
40256;SDS011;25977;45.462;9.210;2022-12-31T03:49:53;32.17;;;19.48;;
40256;SDS011;25977;45.462;9.210;2022-12-31T03:52:19;37.83;;;19.33;;
40256;SDS011;25977;45.462;9.210;2022-12-31T03:54:45;35.17;;;19.70;;
40256;SDS011;25977;45.462;9.210;2022-12-31T03:57:10;32.92;;;17.92;;
40256;SDS011;25977;45.462;9.210;2022-12-31T03:59:36;33.33;;;19.27;;
40256;SDS011;25977;45.462;9.210;2022-12-31T04:02:02;35.60;;;19.10;;
40256;SDS011;25977;45.462;9.210;2022-12-31T04:04:28;35.00;;;19.63;;
40256;SDS011;25977;45.462;9.210;2022-12-31T04:06:54;38.38;;;19.55;;
40256;SDS011;25977;45.462;9.210;2022-12-31T04:09:20;36.20;;;19.90;;
40256;SDS011;25977;45.462;9.210;2022-12-31T04:11:46;34.75;;;17.48;;
40256;SDS011;25977;45.462;9.210;2022-12-31T04:14:12;32.45;;;18.40;;
40256;SDS011;25977;45.462;9.210;2022-12-31T04:16:38;32.42;;;19.33;;
40256;SDS011;25977;45.462;9.210;2022-12-31T04:19:03;35.55;;;19.17;;
40256;SDS011;25977;45.462;9.210;2022-12-31T04:21:29;31.80;;;17.90;;
40256;SDS011;25977;45.462;9.210;2022-12-31T04:23:55;39.28;;;19.67;;
40256;SDS011;25977;45.462;9.210;2022-12-31T04:26:20;32.28;;;17.38;;
40256;SDS011;25977;45.462;9.210;2022-12-31T04:28:46;38.45;;;18.90;;
40256;SDS011;25977;45.462;9.210;2022-12-31T04:31:12;33.97;;;19.33;;
40256;SDS011;25977;45.462;9.210;2022-12-31T04:33:37;36.50;;;19.13;;
40256;SDS011;25977;45.462;9.210;2022-12-31T04:36:04;36.15;;;19.15;;
40256;SDS011;25977;45.462;9.210;2022-12-31T04:38:31;38.08;;;19.50;;
40256;SDS011;25977;45.462;9.210;2022-12-31T04:40:58;41.33;;;21.35;;
40256;SDS011;25977;45.462;9.210;2022-12-31T04:43:43;40.83;;;20.55;;
40256;SDS011;25977;45.462;9.210;2022-12-31T04:46:17;38.78;;;21.65;;
40256;SDS011;25977;45.462;9.210;2022-12-31T04:48:44;30.10;;;18.00;;
40256;SDS011;25977;45.462;9.210;2022-12-31T04:51:10;40.80;;;19.90;;
40256;SDS011;25977;45.462;9.210;2022-12-31T04:53:37;31.73;;;19.25;;
40256;SDS011;25977;45.462;9.210;2022-12-31T04:56:03;40.15;;;20.67;;
40256;SDS011;25977;45.462;9.210;2022-12-31T04:58:29;36.33;;;19.30;;
40256;SDS011;25977;45.462;9.210;2022-12-31T05:00:56;40.75;;;21.50;;
40256;SDS011;25977;45.462;9.210;2022-12-31T05:03:22;34.88;;;19.13;;
40256;SDS011;25977;45.462;9.210;2022-12-31T05:05:49;38.92;;;19.92;;
40256;SDS011;25977;45.462;9.210;2022-12-31T05:08:15;32.65;;;19.10;;
40256;SDS011;25977;45.462;9.210;2022-12-31T05:10:43;36.97;;;19.17;;
40256;SDS011;25977;45.462;9.210;2022-12-31T05:13:10;39.45;;;20.92;;
40256;SDS011;25977;45.462;9.210;2022-12-31T05:15:36;45.67;;;20.17;;
40256;SDS011;25977;45.462;9.210;2022-12-31T05:18:02;43.83;;;20.92;;
40256;SDS011;25977;45.462;9.210;2022-12-31T05:20:28;36.45;;;20.17;;
40256;SDS011;25977;45.462;9.210;2022-12-31T05:22:54;33.58;;;19.48;;
40256;SDS011;25977;45.462;9.210;2022-12-31T05:25:21;36.13;;;19.30;;
40256;SDS011;25977;45.462;9.210;2022-12-31T05:27:46;35.58;;;19.42;;
40256;SDS011;25977;45.462;9.210;2022-12-31T05:30:12;36.67;;;19.38;;
40256;SDS011;25977;45.462;9.210;2022-12-31T05:32:38;33.17;;;19.33;;
40256;SDS011;25977;45.462;9.210;2022-12-31T05:35:05;35.72;;;19.80;;
40256;SDS011;25977;45.462;9.210;2022-12-31T05:37:32;37.42;;;18.63;;
40256;SDS011;25977;45.462;9.210;2022-12-31T05:39:58;37.10;;;18.50;;
40256;SDS011;25977;45.462;9.210;2022-12-31T05:42:24;33.00;;;18.45;;
40256;SDS011;25977;45.462;9.210;2022-12-31T05:44:50;32.63;;;18.80;;
40256;SDS011;25977;45.462;9.210;2022-12-31T05:47:16;37.03;;;19.95;;
40256;SDS011;25977;45.462;9.210;2022-12-31T05:49:42;36.03;;;18.70;;
40256;SDS011;25977;45.462;9.210;2022-12-31T05:52:08;33.58;;;19.17;;
40256;SDS011;25977;45.462;9.210;2022-12-31T05:54:34;35.90;;;18.73;;
40256;SDS011;25977;45.462;9.210;2022-12-31T05:57:00;33.55;;;17.63;;
40256;SDS011;25977;45.462;9.210;2022-12-31T05:59:28;36.28;;;17.40;;
40256;SDS011;25977;45.462;9.210;2022-12-31T06:01:54;33.70;;;17.83;;
40256;SDS011;25977;45.462;9.210;2022-12-31T06:04:20;30.40;;;18.23;;
40256;SDS011;25977;45.462;9.210;2022-12-31T06:06:46;35.47;;;17.33;;
40256;SDS011;25977;45.462;9.210;2022-12-31T06:09:12;31.92;;;17.50;;
40256;SDS011;25977;45.462;9.210;2022-12-31T06:11:39;33.28;;;18.85;;
40256;SDS011;25977;45.462;9.210;2022-12-31T06:14:05;30.55;;;17.33;;
40256;SDS011;25977;45.462;9.210;2022-12-31T06:16:30;27.33;;;16.67;;
40256;SDS011;25977;45.462;9.210;2022-12-31T06:18:58;32.38;;;16.48;;
40256;SDS011;25977;45.462;9.210;2022-12-31T06:21:27;28.30;;;16.55;;
40256;SDS011;25977;45.462;9.210;2022-12-31T06:23:53;28.77;;;16.95;;
40256;SDS011;25977;45.462;9.210;2022-12-31T06:26:19;31.50;;;17.65;;
40256;SDS011;25977;45.462;9.210;2022-12-31T06:28:45;31.17;;;18.17;;
40256;SDS011;25977;45.462;9.210;2022-12-31T06:31:11;27.77;;;17.23;;
40256;SDS011;25977;45.462;9.210;2022-12-31T06:33:38;31.77;;;18.10;;
40256;SDS011;25977;45.462;9.210;2022-12-31T06:36:05;31.65;;;16.50;;
40256;SDS011;25977;45.462;9.210;2022-12-31T06:38:35;26.88;;;16.67;;
40256;SDS011;25977;45.462;9.210;2022-12-31T06:41:03;27.23;;;16.75;;
40256;SDS011;25977;45.462;9.210;2022-12-31T06:43:29;31.10;;;16.27;;
40256;SDS011;25977;45.462;9.210;2022-12-31T06:45:58;31.02;;;17.10;;
40256;SDS011;25977;45.462;9.210;2022-12-31T06:48:28;28.38;;;15.32;;
40256;SDS011;25977;45.462;9.210;2022-12-31T06:50:54;31.92;;;17.10;;
40256;SDS011;25977;45.462;9.210;2022-12-31T06:53:20;32.50;;;16.67;;
40256;SDS011;25977;45.462;9.210;2022-12-31T06:55:47;34.88;;;17.50;;
40256;SDS011;25977;45.462;9.210;2022-12-31T06:58:14;29.85;;;16.27;;
40256;SDS011;25977;45.462;9.210;2022-12-31T07:00:41;33.95;;;16.52;;
40256;SDS011;25977;45.462;9.210;2022-12-31T07:06:12;31.42;;;16.92;;
40256;SDS011;25977;45.462;9.210;2022-12-31T07:09:02;29.95;;;15.32;;
40256;SDS011;25977;45.462;9.210;2022-12-31T07:11:42;26.38;;;15.63;;
40256;SDS011;25977;45.462;9.210;2022-12-31T07:14:45;32.28;;;15.75;;
40256;SDS011;25977;45.462;9.210;2022-12-31T07:20:10;29.80;;;16.95;;
40256;SDS011;25977;45.462;9.210;2022-12-31T07:22:38;30.13;;;16.90;;
40256;SDS011;25977;45.462;9.210;2022-12-31T07:25:05;31.50;;;18.52;;
40256;SDS011;25977;45.462;9.210;2022-12-31T07:27:35;33.75;;;17.00;;
40256;SDS011;25977;45.462;9.210;2022-12-31T07:30:14;32.95;;;18.00;;
40256;SDS011;25977;45.462;9.210;2022-12-31T07:32:52;28.27;;;16.17;;
40256;SDS011;25977;45.462;9.210;2022-12-31T07:43:49;31.77;;;16.45;;
40256;SDS011;25977;45.462;9.210;2022-12-31T07:46:34;31.63;;;16.55;;
40256;SDS011;25977;45.462;9.210;2022-12-31T07:51:39;29.00;;;16.95;;
40256;SDS011;25977;45.462;9.210;2022-12-31T07:54:05;28.55;;;16.58;;
40256;SDS011;25977;45.462;9.210;2022-12-31T07:56:31;36.97;;;18.45;;
40256;SDS011;25977;45.462;9.210;2022-12-31T07:59:10;31.65;;;18.48;;
40256;SDS011;25977;45.462;9.210;2022-12-31T08:01:49;33.58;;;18.30;;
40256;SDS011;25977;45.462;9.210;2022-12-31T08:06:59;29.63;;;17.67;;
40256;SDS011;25977;45.462;9.210;2022-12-31T08:09:32;36.25;;;19.73;;
40256;SDS011;25977;45.462;9.210;2022-12-31T08:12:24;31.77;;;16.15;;
40256;SDS011;25977;45.462;9.210;2022-12-31T08:14:55;30.15;;;16.17;;
40256;SDS011;25977;45.462;9.210;2022-12-31T08:17:21;26.70;;;16.80;;
40256;SDS011;25977;45.462;9.210;2022-12-31T08:19:47;30.90;;;17.10;;
40256;SDS011;25977;45.462;9.210;2022-12-31T08:25:07;32.85;;;17.05;;
40256;SDS011;25977;45.462;9.210;2022-12-31T08:30:14;29.42;;;16.90;;
40256;SDS011;25977;45.462;9.210;2022-12-31T08:35:36;29.45;;;16.95;;
40256;SDS011;25977;45.462;9.210;2022-12-31T08:46:48;26.48;;;14.80;;
40256;SDS011;25977;45.462;9.210;2022-12-31T08:49:40;28.30;;;16.27;;
40256;SDS011;25977;45.462;9.210;2022-12-31T08:52:12;29.88;;;15.98;;
40256;SDS011;25977;45.462;9.210;2022-12-31T08:54:41;30.17;;;16.52;;
40256;SDS011;25977;45.462;9.210;2022-12-31T09:02:21;22.55;;;15.43;;
40256;SDS011;25977;45.462;9.210;2022-12-31T09:10:31;33.60;;;16.35;;
40256;SDS011;25977;45.462;9.210;2022-12-31T09:13:35;26.48;;;14.93;;
40256;SDS011;25977;45.462;9.210;2022-12-31T09:19:24;26.08;;;14.48;;
40256;SDS011;25977;45.462;9.210;2022-12-31T09:21:50;26.63;;;16.67;;
40256;SDS011;25977;45.462;9.210;2022-12-31T09:24:16;26.27;;;15.07;;
40256;SDS011;25977;45.462;9.210;2022-12-31T09:29:54;31.48;;;15.02;;
40256;SDS011;25977;45.462;9.210;2022-12-31T09:32:28;29.40;;;14.70;;
40256;SDS011;25977;45.462;9.210;2022-12-31T09:37:54;24.05;;;15.68;;
40256;SDS011;25977;45.462;9.210;2022-12-31T09:52:00;27.98;;;14.98;;
40256;SDS011;25977;45.462;9.210;2022-12-31T09:54:51;27.27;;;14.65;;
40256;SDS011;25977;45.462;9.210;2022-12-31T09:57:38;28.70;;;15.52;;
40256;SDS011;25977;45.462;9.210;2022-12-31T10:22:55;27.02;;;16.17;;
40256;SDS011;25977;45.462;9.210;2022-12-31T10:36:43;25.95;;;16.63;;
40256;SDS011;25977;45.462;9.210;2022-12-31T10:39:17;26.92;;;15.65;;
40256;SDS011;25977;45.462;9.210;2022-12-31T10:47:52;23.98;;;14.63;;
40256;SDS011;25977;45.462;9.210;2022-12-31T10:50:58;24.05;;;14.52;;
40256;SDS011;25977;45.462;9.210;2022-12-31T10:53:50;29.42;;;14.93;;
40256;SDS011;25977;45.462;9.210;2022-12-31T10:59:54;22.42;;;14.38;;
40256;SDS011;25977;45.462;9.210;2022-12-31T11:10:53;25.77;;;16.52;;
40256;SDS011;25977;45.462;9.210;2022-12-31T11:14:30;28.35;;;15.88;;
40256;SDS011;25977;45.462;9.210;2022-12-31T11:20:00;27.17;;;15.43;;
40256;SDS011;25977;45.462;9.210;2022-12-31T11:22:56;28.02;;;15.77;;
40256;SDS011;25977;45.462;9.210;2022-12-31T11:25:56;27.40;;;16.05;;
40256;SDS011;25977;45.462;9.210;2022-12-31T11:43:31;32.00;;;13.98;;
40256;SDS011;25977;45.462;9.210;2022-12-31T11:48:43;24.00;;;15.20;;
40256;SDS011;25977;45.462;9.210;2022-12-31T11:57:01;22.75;;;14.48;;
40256;SDS011;25977;45.462;9.210;2022-12-31T12:02:39;24.55;;;14.98;;
40256;SDS011;25977;45.462;9.210;2022-12-31T12:05:14;28.23;;;15.05;;
40256;SDS011;25977;45.462;9.210;2022-12-31T12:13:09;27.23;;;16.30;;
40256;SDS011;25977;45.462;9.210;2022-12-31T12:15:35;25.17;;;15.63;;
40256;SDS011;25977;45.462;9.210;2022-12-31T12:18:05;27.92;;;16.35;;
40256;SDS011;25977;45.462;9.210;2022-12-31T12:20:37;33.00;;;17.42;;
40256;SDS011;25977;45.462;9.210;2022-12-31T12:23:15;24.40;;;15.85;;
40256;SDS011;25977;45.462;9.210;2022-12-31T12:25:50;23.20;;;14.90;;
40256;SDS011;25977;45.462;9.210;2022-12-31T12:31:01;23.55;;;15.27;;
40256;SDS011;25977;45.462;9.210;2022-12-31T12:33:29;27.13;;;16.02;;
40256;SDS011;25977;45.462;9.210;2022-12-31T12:36:07;26.48;;;15.85;;
40256;SDS011;25977;45.462;9.210;2022-12-31T12:38:38;24.92;;;14.77;;
40256;SDS011;25977;45.462;9.210;2022-12-31T12:41:05;25.70;;;15.07;;
40256;SDS011;25977;45.462;9.210;2022-12-31T12:43:35;31.67;;;15.95;;
40256;SDS011;25977;45.462;9.210;2022-12-31T12:46:11;25.30;;;15.30;;
40256;SDS011;25977;45.462;9.210;2022-12-31T12:48:53;22.90;;;15.77;;
40256;SDS011;25977;45.462;9.210;2022-12-31T12:56:36;21.77;;;15.27;;
40256;SDS011;25977;45.462;9.210;2022-12-31T12:59:13;22.67;;;15.02;;
40256;SDS011;25977;45.462;9.210;2022-12-31T13:12:42;26.05;;;15.18;;
40256;SDS011;25977;45.462;9.210;2022-12-31T13:20:49;24.50;;;16.23;;
40256;SDS011;25977;45.462;9.210;2022-12-31T13:28:39;26.33;;;15.63;;
40256;SDS011;25977;45.462;9.210;2022-12-31T13:31:16;18.10;;;12.48;;
40256;SDS011;25977;45.462;9.210;2022-12-31T13:33:51;25.83;;;15.38;;
40256;SDS011;25977;45.462;9.210;2022-12-31T13:36:21;19.05;;;12.85;;
40256;SDS011;25977;45.462;9.210;2022-12-31T13:38:50;22.70;;;14.13;;
40256;SDS011;25977;45.462;9.210;2022-12-31T13:46:44;23.38;;;13.93;;
40256;SDS011;25977;45.462;9.210;2022-12-31T14:00:16;19.80;;;13.07;;
40256;SDS011;25977;45.462;9.210;2022-12-31T14:05:43;21.77;;;12.98;;
40256;SDS011;25977;45.462;9.210;2022-12-31T14:08:26;27.17;;;13.95;;
40256;SDS011;25977;45.462;9.210;2022-12-31T14:16:41;23.30;;;14.45;;
40256;SDS011;25977;45.462;9.210;2022-12-31T14:21:52;20.92;;;13.02;;
40256;SDS011;25977;45.462;9.210;2022-12-31T14:24:31;23.33;;;14.02;;
40256;SDS011;25977;45.462;9.210;2022-12-31T14:27:06;23.67;;;13.75;;
40256;SDS011;25977;45.462;9.210;2022-12-31T14:29:39;20.77;;;12.88;;
40256;SDS011;25977;45.462;9.210;2022-12-31T14:37:48;20.70;;;14.30;;
40256;SDS011;25977;45.462;9.210;2022-12-31T14:48:28;20.05;;;14.38;;
40256;SDS011;25977;45.462;9.210;2022-12-31T14:50:57;29.25;;;15.95;;
40256;SDS011;25977;45.462;9.210;2022-12-31T14:53:26;26.25;;;15.00;;
40256;SDS011;25977;45.462;9.210;2022-12-31T14:59:18;22.40;;;14.02;;
40256;SDS011;25977;45.462;9.210;2022-12-31T15:01:48;24.88;;;14.75;;
40256;SDS011;25977;45.462;9.210;2022-12-31T15:04:14;20.27;;;14.93;;
40256;SDS011;25977;45.462;9.210;2022-12-31T15:06:44;22.33;;;15.80;;
40256;SDS011;25977;45.462;9.210;2022-12-31T15:14:59;28.40;;;17.60;;
40256;SDS011;25977;45.462;9.210;2022-12-31T15:17:59;23.52;;;15.27;;
40256;SDS011;25977;45.462;9.210;2022-12-31T15:23:21;25.80;;;15.77;;
40256;SDS011;25977;45.462;9.210;2022-12-31T15:26:16;31.00;;;18.42;;
40256;SDS011;25977;45.462;9.210;2022-12-31T15:32:19;27.33;;;16.40;;
40256;SDS011;25977;45.462;9.210;2022-12-31T15:35:02;27.77;;;18.23;;
40256;SDS011;25977;45.462;9.210;2022-12-31T15:37:59;26.33;;;17.48;;
40256;SDS011;25977;45.462;9.210;2022-12-31T15:43:13;28.48;;;18.05;;
40256;SDS011;25977;45.462;9.210;2022-12-31T15:45:52;27.23;;;17.55;;
40256;SDS011;25977;45.462;9.210;2022-12-31T15:48:25;38.97;;;25.00;;
40256;SDS011;25977;45.462;9.210;2022-12-31T15:50:55;35.40;;;19.73;;
40256;SDS011;25977;45.462;9.210;2022-12-31T15:53:35;31.75;;;18.90;;
40256;SDS011;25977;45.462;9.210;2022-12-31T15:56:06;28.20;;;18.10;;
40256;SDS011;25977;45.462;9.210;2022-12-31T15:58:41;33.08;;;19.10;;
40256;SDS011;25977;45.462;9.210;2022-12-31T16:01:19;30.30;;;18.77;;
40256;SDS011;25977;45.462;9.210;2022-12-31T16:03:53;28.60;;;18.92;;
40256;SDS011;25977;45.462;9.210;2022-12-31T16:06:29;29.13;;;19.38;;
40256;SDS011;25977;45.462;9.210;2022-12-31T16:08:57;31.38;;;19.45;;
40256;SDS011;25977;45.462;9.210;2022-12-31T16:11:23;36.15;;;21.13;;
40256;SDS011;25977;45.462;9.210;2022-12-31T16:13:51;32.15;;;19.67;;
40256;SDS011;25977;45.462;9.210;2022-12-31T16:16:29;36.45;;;21.83;;
40256;SDS011;25977;45.462;9.210;2022-12-31T16:18:56;35.10;;;22.45;;
40256;SDS011;25977;45.462;9.210;2022-12-31T16:23:52;34.60;;;20.95;;
40256;SDS011;25977;45.462;9.210;2022-12-31T16:26:19;40.83;;;24.27;;
40256;SDS011;25977;45.462;9.210;2022-12-31T16:28:47;42.55;;;23.00;;
40256;SDS011;25977;45.462;9.210;2022-12-31T16:31:15;38.60;;;24.23;;
40256;SDS011;25977;45.462;9.210;2022-12-31T16:33:44;38.40;;;24.05;;
40256;SDS011;25977;45.462;9.210;2022-12-31T16:36:21;36.97;;;23.00;;
40256;SDS011;25977;45.462;9.210;2022-12-31T16:38:48;36.63;;;22.88;;
40256;SDS011;25977;45.462;9.210;2022-12-31T16:41:17;44.75;;;23.75;;
40256;SDS011;25977;45.462;9.210;2022-12-31T16:43:46;40.15;;;24.23;;
40256;SDS011;25977;45.462;9.210;2022-12-31T16:48:53;39.08;;;21.80;;
40256;SDS011;25977;45.462;9.210;2022-12-31T16:51:24;44.65;;;24.88;;
40256;SDS011;25977;45.462;9.210;2022-12-31T16:53:55;43.28;;;25.00;;
40256;SDS011;25977;45.462;9.210;2022-12-31T16:56:27;37.97;;;22.85;;
40256;SDS011;25977;45.462;9.210;2022-12-31T16:59:04;37.40;;;21.20;;
40256;SDS011;25977;45.462;9.210;2022-12-31T17:01:41;31.40;;;19.58;;
40256;SDS011;25977;45.462;9.210;2022-12-31T17:04:08;35.92;;;23.48;;
40256;SDS011;25977;45.462;9.210;2022-12-31T17:06:38;38.28;;;22.38;;
40256;SDS011;25977;45.462;9.210;2022-12-31T17:14:59;36.80;;;22.08;;
40256;SDS011;25977;45.462;9.210;2022-12-31T17:17:27;40.60;;;23.00;;
40256;SDS011;25977;45.462;9.210;2022-12-31T17:19:57;38.58;;;23.25;;
40256;SDS011;25977;45.462;9.210;2022-12-31T17:27:42;38.88;;;22.77;;
40256;SDS011;25977;45.462;9.210;2022-12-31T17:33:03;41.90;;;23.27;;
40256;SDS011;25977;45.462;9.210;2022-12-31T17:35:34;38.00;;;24.85;;
40256;SDS011;25977;45.462;9.210;2022-12-31T17:40:42;43.83;;;25.83;;
40256;SDS011;25977;45.462;9.210;2022-12-31T17:43:11;43.85;;;24.02;;
40256;SDS011;25977;45.462;9.210;2022-12-31T17:45:38;38.88;;;23.20;;
40256;SDS011;25977;45.462;9.210;2022-12-31T17:48:06;41.33;;;25.15;;
40256;SDS011;25977;45.462;9.210;2022-12-31T17:50:34;39.90;;;24.25;;
40256;SDS011;25977;45.462;9.210;2022-12-31T17:53:11;45.33;;;27.40;;
40256;SDS011;25977;45.462;9.210;2022-12-31T17:55:37;45.15;;;27.23;;
40256;SDS011;25977;45.462;9.210;2022-12-31T17:58:15;44.85;;;26.83;;
40256;SDS011;25977;45.462;9.210;2022-12-31T18:01:21;47.38;;;27.58;;
40256;SDS011;25977;45.462;9.210;2022-12-31T18:03:47;47.88;;;29.00;;
40256;SDS011;25977;45.462;9.210;2022-12-31T18:06:14;44.35;;;27.35;;
40256;SDS011;25977;45.462;9.210;2022-12-31T18:08:40;42.15;;;23.83;;
40256;SDS011;25977;45.462;9.210;2022-12-31T18:11:06;38.05;;;23.45;;
40256;SDS011;25977;45.462;9.210;2022-12-31T18:13:40;39.10;;;23.05;;
40256;SDS011;25977;45.462;9.210;2022-12-31T18:16:06;33.83;;;21.15;;
40256;SDS011;25977;45.462;9.210;2022-12-31T18:18:32;42.20;;;23.05;;
40256;SDS011;25977;45.462;9.210;2022-12-31T18:21:10;33.78;;;21.90;;
40256;SDS011;25977;45.462;9.210;2022-12-31T18:23:51;34.92;;;20.85;;
40256;SDS011;25977;45.462;9.210;2022-12-31T18:26:17;35.67;;;22.33;;
40256;SDS011;25977;45.462;9.210;2022-12-31T18:28:45;38.47;;;23.23;;
40256;SDS011;25977;45.462;9.210;2022-12-31T18:31:15;38.60;;;20.42;;
40256;SDS011;25977;45.462;9.210;2022-12-31T18:33:43;35.67;;;21.20;;
40256;SDS011;25977;45.462;9.210;2022-12-31T18:36:11;39.00;;;22.58;;
40256;SDS011;25977;45.462;9.210;2022-12-31T18:38:39;36.95;;;22.85;;
40256;SDS011;25977;45.462;9.210;2022-12-31T18:41:05;35.85;;;22.65;;
40256;SDS011;25977;45.462;9.210;2022-12-31T18:43:36;41.65;;;23.05;;
40256;SDS011;25977;45.462;9.210;2022-12-31T18:46:01;50.42;;;24.35;;
40256;SDS011;25977;45.462;9.210;2022-12-31T18:48:27;40.83;;;23.58;;
40256;SDS011;25977;45.462;9.210;2022-12-31T18:50:53;35.60;;;22.92;;
40256;SDS011;25977;45.462;9.210;2022-12-31T18:53:21;38.85;;;25.83;;
40256;SDS011;25977;45.462;9.210;2022-12-31T18:55:52;34.60;;;22.83;;
40256;SDS011;25977;45.462;9.210;2022-12-31T18:58:19;35.25;;;22.67;;
40256;SDS011;25977;45.462;9.210;2022-12-31T19:00:46;34.30;;;22.10;;
40256;SDS011;25977;45.462;9.210;2022-12-31T19:03:16;37.80;;;24.20;;
40256;SDS011;25977;45.462;9.210;2022-12-31T19:05:47;48.05;;;23.65;;
40256;SDS011;25977;45.462;9.210;2022-12-31T19:08:18;42.65;;;24.08;;
40256;SDS011;25977;45.462;9.210;2022-12-31T19:10:45;42.00;;;24.48;;
40256;SDS011;25977;45.462;9.210;2022-12-31T19:13:12;39.03;;;24.85;;
40256;SDS011;25977;45.462;9.210;2022-12-31T19:15:43;38.10;;;23.60;;
40256;SDS011;25977;45.462;9.210;2022-12-31T19:18:10;41.40;;;24.63;;
40256;SDS011;25977;45.462;9.210;2022-12-31T19:20:36;42.30;;;26.27;;
40256;SDS011;25977;45.462;9.210;2022-12-31T19:23:02;42.03;;;24.77;;
40256;SDS011;25977;45.462;9.210;2022-12-31T19:25:32;42.03;;;24.80;;
40256;SDS011;25977;45.462;9.210;2022-12-31T19:27:59;42.90;;;25.05;;
40256;SDS011;25977;45.462;9.210;2022-12-31T19:30:27;46.92;;;27.75;;
40256;SDS011;25977;45.462;9.210;2022-12-31T19:32:55;39.88;;;24.83;;